createdAt,value
2022-11-28T00:01:34.150Z,4.90
2022-11-28T00:04:00.927Z,4.90
2022-11-28T00:06:27.839Z,4.90
2022-11-28T00:08:55.024Z,4.90
2022-11-28T00:11:21.750Z,4.90
2022-11-28T00:13:50.691Z,4.90
2022-11-28T00:16:22.870Z,4.90
2022-11-28T00:18:50.446Z,4.90
2022-11-28T00:21:17.277Z,4.90
2022-11-28T00:23:46.629Z,4.90
2022-11-28T00:26:13.285Z,4.90
2022-11-28T00:28:40.062Z,4.90
2022-11-28T00:31:06.880Z,4.90
2022-11-28T00:33:33.634Z,4.90
2022-11-28T00:36:01.238Z,5.00
2022-11-28T00:38:30.369Z,5.00
2022-11-28T00:41:01.282Z,5.00
2022-11-28T00:43:28.139Z,5.00
2022-11-28T00:45:55.035Z,5.00
2022-11-28T00:48:21.875Z,5.00
2022-11-28T00:50:48.585Z,5.00
2022-11-28T00:53:15.359Z,5.00
2022-11-28T00:55:42.112Z,5.00
2022-11-28T00:58:10.949Z,5.00
2022-11-28T01:00:38.020Z,5.00
2022-11-28T01:03:04.945Z,5.00
2022-11-28T01:05:31.656Z,5.00
2022-11-28T01:08:00.554Z,5.00
2022-11-28T01:10:29.957Z,4.90
2022-11-28T01:12:59.133Z,5.00
2022-11-28T01:15:26.029Z,4.80
2022-11-28T01:17:52.706Z,4.70
2022-11-28T01:20:19.515Z,4.70
2022-11-28T01:22:46.255Z,4.70
2022-11-28T01:25:12.961Z,4.80
2022-11-28T01:27:39.717Z,4.70
2022-11-28T01:30:12.018Z,4.80
2022-11-28T01:32:38.711Z,4.60
2022-11-28T01:35:05.763Z,4.60
2022-11-28T01:37:32.471Z,4.50
2022-11-28T01:40:01.333Z,4.60
2022-11-28T01:42:30.295Z,4.60
2022-11-28T01:45:07.791Z,4.40
2022-11-28T01:47:36.955Z,4.40
2022-11-28T01:50:06.902Z,4.40
2022-11-28T01:52:35.672Z,4.50
2022-11-28T01:55:04.661Z,4.50
2022-11-28T01:57:33.524Z,4.60
2022-11-28T02:00:12.651Z,4.60
2022-11-28T02:02:53.520Z,4.60
2022-11-28T02:05:21.047Z,4.60
2022-11-28T02:07:48.119Z,4.70
2022-11-28T02:10:25.608Z,4.50
2022-11-28T02:13:19.781Z,4.40
2022-11-28T02:16:09.280Z,4.40
2022-11-28T02:18:55.203Z,4.50
2022-11-28T02:21:33.415Z,4.50
2022-11-28T02:24:21.408Z,4.50
2022-11-28T02:27:28.515Z,4.60
2022-11-28T02:30:03.760Z,4.60
2022-11-28T02:32:49.120Z,4.60
2022-11-28T02:35:20.989Z,4.60
2022-11-28T02:38:03.152Z,4.60
2022-11-28T02:40:34.809Z,4.60
2022-11-28T02:43:03.695Z,4.70
2022-11-28T02:45:37.424Z,4.60
2022-11-28T02:48:09.169Z,4.60
2022-11-28T02:50:51.194Z,4.60
2022-11-28T02:53:20.517Z,4.60
2022-11-28T02:55:47.224Z,4.60
2022-11-28T02:58:16.060Z,4.90
2022-11-28T03:00:43.828Z,4.60
2022-11-28T03:03:16.641Z,4.60
2022-11-28T03:05:44.505Z,4.60
2022-11-28T03:08:26.097Z,4.60
2022-11-28T03:11:04.790Z,4.60
2022-11-28T03:13:45.574Z,4.60
2022-11-28T03:16:23.990Z,4.60
2022-11-28T03:18:59.750Z,4.60
2022-11-28T03:21:38.495Z,4.60
2022-11-28T03:24:25.467Z,4.60
2022-11-28T03:26:57.520Z,4.50
2022-11-28T03:29:33.062Z,4.50
2022-11-28T03:32:06.083Z,4.50
2022-11-28T03:34:36.359Z,4.60
2022-11-28T03:37:05.145Z,4.50
2022-11-28T03:39:37.867Z,4.60
2022-11-28T03:42:09.112Z,4.60
2022-11-28T03:44:44.047Z,4.60
2022-11-28T03:47:11.597Z,4.60
2022-11-28T03:49:42.416Z,4.60
2022-11-28T03:52:16.694Z,4.60
2022-11-28T03:54:58.006Z,4.60
2022-11-28T03:57:47.183Z,4.60
2022-11-28T04:00:14.351Z,4.60
2022-11-28T04:02:53.159Z,4.60
2022-11-28T04:05:51.050Z,4.60
2022-11-28T04:08:27.126Z,4.50
2022-11-28T04:10:56.894Z,4.50
2022-11-28T04:13:29.393Z,4.50
2022-11-28T04:16:04.099Z,4.50
2022-11-28T04:18:54.548Z,4.50
2022-11-28T04:21:27.226Z,4.50
2022-11-28T04:23:55.211Z,4.50
2022-11-28T04:26:35.815Z,4.50
2022-11-28T04:29:05.085Z,4.50
2022-11-28T04:31:32.365Z,4.50
2022-11-28T04:34:04.757Z,4.50
2022-11-28T04:36:33.821Z,4.50
2022-11-28T04:39:00.577Z,4.50
2022-11-28T04:41:35.925Z,4.50
2022-11-28T04:44:14.936Z,4.50
2022-11-28T04:46:47.504Z,4.50
2022-11-28T04:49:14.200Z,4.50
2022-11-28T04:51:53.439Z,4.40
2022-11-28T04:54:58.446Z,4.40
2022-11-28T04:57:41.553Z,4.40
2022-11-28T05:00:13.205Z,4.40
2022-11-28T05:02:42.697Z,4.40
2022-11-28T05:05:19.511Z,4.40
2022-11-28T05:07:46.297Z,4.40
2022-11-28T05:10:13.984Z,4.40
2022-11-28T05:12:40.738Z,4.40
2022-11-28T05:15:08.138Z,4.30
2022-11-28T05:17:40.459Z,4.40
2022-11-28T05:20:09.139Z,4.40
2022-11-28T05:22:35.843Z,4.40
2022-11-28T05:25:05.509Z,4.40
2022-11-28T05:27:32.285Z,4.40
2022-11-28T05:30:01.540Z,4.40
2022-11-28T05:32:33.308Z,4.40
2022-11-28T05:35:00.004Z,4.30
2022-11-28T05:37:26.711Z,4.30
2022-11-28T05:39:53.949Z,4.30
2022-11-28T05:42:20.648Z,4.20
2022-11-28T05:44:48.157Z,4.20
2022-11-28T05:47:17.460Z,4.20
2022-11-28T05:49:48.968Z,4.10
2022-11-28T05:52:15.684Z,4.00
2022-11-28T05:54:44.595Z,4.00
2022-11-28T05:57:13.877Z,4.00
2022-11-28T05:59:40.816Z,3.90
2022-11-28T06:02:07.843Z,3.90
2022-11-28T06:04:34.683Z,3.90
2022-11-28T06:07:01.407Z,4.30
2022-11-28T06:09:28.098Z,3.90
2022-11-28T06:11:54.839Z,3.90
2022-11-28T06:14:21.558Z,3.90
2022-11-28T06:16:48.534Z,3.80
2022-11-28T06:19:15.332Z,3.80
2022-11-28T06:21:44.541Z,3.80
2022-11-28T06:24:11.324Z,3.90
2022-11-28T06:26:38.021Z,3.90
2022-11-28T06:29:07.196Z,3.90
2022-11-28T06:31:34.330Z,4.00
2022-11-28T06:34:06.016Z,4.00
2022-11-28T06:36:32.756Z,4.00
2022-11-28T06:38:59.502Z,4.00
2022-11-28T06:41:26.189Z,4.00
2022-11-28T06:43:52.922Z,4.00
2022-11-28T06:46:20.623Z,4.00
2022-11-28T06:48:48.030Z,4.00
2022-11-28T06:51:14.893Z,4.00
2022-11-28T06:53:41.627Z,4.00
2022-11-28T06:56:09.985Z,3.90
2022-11-28T06:58:41.574Z,3.90
2022-11-28T07:01:14.064Z,3.80
2022-11-28T07:03:40.920Z,3.80
2022-11-28T07:06:07.966Z,3.80
2022-11-28T07:08:34.809Z,3.70
2022-11-28T07:11:12.740Z,3.70
2022-11-28T07:13:40.017Z,3.60
2022-11-28T07:16:07.438Z,3.50
2022-11-28T07:18:36.500Z,3.50
2022-11-28T07:21:03.618Z,3.50
2022-11-28T07:23:30.310Z,3.50
2022-11-28T07:26:00.970Z,3.40
2022-11-28T07:28:28.599Z,3.30
2022-11-28T07:31:11.853Z,3.20
2022-11-28T07:33:41.800Z,3.30
2022-11-28T07:36:15.722Z,3.20
2022-11-28T07:38:42.568Z,3.30
2022-11-28T07:41:13.313Z,3.20
2022-11-28T07:43:43.261Z,3.20
2022-11-28T07:46:11.873Z,3.20
2022-11-28T07:48:41.113Z,3.20
2022-11-28T07:51:11.888Z,3.20
2022-11-28T07:53:38.636Z,3.20
2022-11-28T07:56:06.727Z,3.20
2022-11-28T07:58:34.214Z,3.10
2022-11-28T08:01:01.108Z,3.20
2022-11-28T08:03:27.907Z,3.10
2022-11-28T08:06:01.728Z,3.10
2022-11-28T08:08:32.255Z,3.10
2022-11-28T08:11:02.973Z,3.10
2022-11-28T08:13:31.902Z,3.10
2022-11-28T08:15:58.655Z,3.10
2022-11-28T08:18:25.415Z,3.10
2022-11-28T08:20:54.670Z,3.20
2022-11-28T08:23:21.355Z,3.20
2022-11-28T08:25:48.082Z,3.20
2022-11-28T08:28:14.838Z,3.20
2022-11-28T08:30:44.086Z,3.20
2022-11-28T08:33:13.816Z,3.20
2022-11-28T08:35:40.606Z,3.30
2022-11-28T08:38:07.413Z,3.20
2022-11-28T08:40:34.209Z,3.30
2022-11-28T08:43:00.905Z,3.30
2022-11-28T08:45:27.626Z,3.30
2022-11-28T08:47:54.403Z,3.30
2022-11-28T08:50:25.673Z,3.40
2022-11-28T08:52:52.363Z,3.30
2022-11-28T08:55:22.246Z,3.40
2022-11-28T08:57:52.130Z,3.40
2022-11-28T09:00:19.678Z,3.50
2022-11-28T09:02:46.408Z,3.50
2022-11-28T09:05:13.184Z,3.60
2022-11-28T09:07:39.899Z,3.60
2022-11-28T09:10:07.387Z,3.60
2022-11-28T09:12:36.274Z,3.70
2022-11-28T09:15:03.038Z,3.80
2022-11-28T09:17:29.724Z,3.80
2022-11-28T09:19:56.423Z,3.80
2022-11-28T09:22:23.153Z,3.90
2022-11-28T09:24:49.873Z,3.90
2022-11-28T09:27:19.069Z,4.60
2022-11-28T09:29:45.884Z,3.90
2022-11-28T09:32:15.068Z,4.00
2022-11-28T09:34:44.026Z,4.00
2022-11-28T09:37:10.855Z,4.10
2022-11-28T09:39:57.448Z,4.10
2022-11-28T09:42:43.642Z,4.10
2022-11-28T09:45:20.968Z,4.20
2022-11-28T09:47:52.716Z,4.20
2022-11-28T09:50:25.537Z,4.30
2022-11-28T09:53:10.937Z,4.20
2022-11-28T09:56:00.204Z,4.10
2022-11-28T09:58:53.552Z,4.20
2022-11-28T10:01:20.264Z,4.10
2022-11-28T10:04:04.905Z,4.20
2022-11-28T10:06:36.158Z,4.10
2022-11-28T10:09:15.537Z,4.10
2022-11-28T10:12:16.669Z,4.20
2022-11-28T10:14:52.368Z,4.20
2022-11-28T10:17:33.551Z,4.20
2022-11-28T10:20:08.589Z,4.20
2022-11-28T10:22:50.549Z,4.10
2022-11-28T10:25:29.484Z,4.10
2022-11-28T10:27:58.568Z,4.10
2022-11-28T10:30:26.746Z,4.10
2022-11-28T10:33:04.235Z,4.10
2022-11-28T10:35:44.648Z,4.10
2022-11-28T10:38:15.325Z,4.20
2022-11-28T10:40:44.995Z,4.20
2022-11-28T10:43:27.687Z,4.20
2022-11-28T10:46:17.413Z,4.30
2022-11-28T10:48:50.163Z,4.20
2022-11-28T10:51:57.691Z,4.30
2022-11-28T10:54:39.357Z,4.20
2022-11-28T10:57:18.049Z,4.20
2022-11-28T10:59:45.068Z,4.20
2022-11-28T11:02:32.273Z,4.20
2022-11-28T11:04:59.142Z,4.20
2022-11-28T11:07:30.831Z,4.20
2022-11-28T11:10:15.543Z,4.20
2022-11-28T11:12:42.287Z,4.10
2022-11-28T11:15:29.940Z,4.10
2022-11-28T11:17:57.169Z,4.10
2022-11-28T11:20:29.128Z,4.00
2022-11-28T11:22:56.995Z,4.00
2022-11-28T11:25:25.017Z,3.90
2022-11-28T11:27:53.234Z,3.80
2022-11-28T11:30:27.729Z,3.80
2022-11-28T11:32:56.022Z,3.80
2022-11-28T11:35:28.027Z,3.70
2022-11-28T11:38:15.451Z,3.70
2022-11-28T11:40:42.149Z,3.70
2022-11-28T11:43:25.973Z,3.80
2022-11-28T11:46:11.805Z,3.80
2022-11-28T11:48:43.379Z,3.90
2022-11-28T11:51:25.451Z,3.90
2022-11-28T11:54:13.356Z,3.90
2022-11-28T11:56:41.597Z,4.00
2022-11-28T11:59:15.625Z,4.00
2022-11-28T12:01:43.227Z,4.00
2022-11-28T12:04:43.309Z,4.10
2022-11-28T12:07:04.771Z,4.00
2022-11-28T12:09:48.066Z,4.00
2022-11-28T12:12:17.976Z,4.00
2022-11-28T12:14:47.290Z,4.00
2022-11-28T12:20:27.790Z,4.00
2022-11-28T12:23:18.784Z,4.00
2022-11-28T12:26:08.930Z,4.00
2022-11-28T12:29:00.185Z,4.10
2022-11-28T12:31:48.697Z,4.10
2022-11-28T12:34:30.672Z,4.20
2022-11-28T12:37:09.536Z,4.20
2022-11-28T12:39:47.549Z,4.30
2022-11-28T12:42:38.980Z,4.30
2022-11-28T12:45:33.266Z,4.30
2022-11-28T12:48:21.840Z,4.30
2022-11-28T12:51:07.552Z,4.20
2022-11-28T12:54:06.539Z,4.10
2022-11-28T12:56:42.861Z,4.10
2022-11-28T12:59:17.801Z,4.10
2022-11-28T13:02:05.234Z,4.10
2022-11-28T13:04:49.588Z,4.10
2022-11-28T13:07:42.717Z,4.10
2022-11-28T13:10:17.691Z,4.10
2022-11-28T13:13:04.956Z,4.10
2022-11-28T13:15:34.543Z,4.00
2022-11-28T13:18:15.207Z,4.10
2022-11-28T13:20:45.855Z,4.00
2022-11-28T13:23:28.554Z,4.00
2022-11-28T13:26:04.483Z,4.00
2022-11-28T13:28:53.774Z,4.00
2022-11-28T13:31:25.044Z,4.00
2022-11-28T13:33:52.371Z,4.00
2022-11-28T13:39:38.248Z,4.00
2022-11-28T13:45:31.776Z,4.00
2022-11-28T13:48:01.445Z,4.00
2022-11-28T13:50:28.197Z,4.00
2022-11-28T13:53:00.665Z,4.00
2022-11-28T13:55:40.423Z,4.00
2022-11-28T13:58:28.444Z,4.00
2022-11-28T14:01:05.884Z,4.00
2022-11-28T14:03:57.862Z,4.00
2022-11-28T14:06:30.230Z,4.00
2022-11-28T14:09:12.027Z,4.00
2022-11-28T14:12:03.675Z,4.00
2022-11-28T14:14:46.106Z,4.00
2022-11-28T14:17:37.845Z,4.00
2022-11-28T14:20:28.897Z,4.00
2022-11-28T14:23:17.355Z,3.90
2022-11-28T14:25:45.610Z,3.90
2022-11-28T14:28:25.869Z,3.90
2022-11-28T14:30:59.612Z,4.00
2022-11-28T14:33:31.150Z,3.90
2022-11-28T14:35:57.899Z,3.90
2022-11-28T14:38:30.159Z,4.00
2022-11-28T14:40:59.614Z,3.90
2022-11-28T14:43:30.091Z,3.90
2022-11-28T14:46:15.779Z,3.90
2022-11-28T14:48:57.776Z,3.90
2022-11-28T14:51:49.660Z,3.90
2022-11-28T14:54:19.129Z,3.80
2022-11-28T14:56:45.841Z,3.80
2022-11-28T14:59:12.597Z,3.70
2022-11-28T15:02:32.148Z,3.70
2022-11-28T15:05:15.103Z,3.70
2022-11-28T15:07:41.790Z,3.70
2022-11-28T15:10:23.734Z,3.70
2022-11-28T15:12:56.364Z,3.70
2022-11-28T15:15:23.249Z,3.70
2022-11-28T15:17:51.415Z,3.70
2022-11-28T15:20:34.887Z,3.70
2022-11-28T15:23:01.574Z,3.70
2022-11-28T15:25:37.277Z,3.70
2022-11-28T15:28:14.850Z,3.70
2022-11-28T15:30:48.901Z,3.60
2022-11-28T15:33:17.746Z,3.60
2022-11-28T15:36:10.931Z,3.60
2022-11-28T15:38:37.881Z,3.60
2022-11-28T15:41:04.654Z,3.60
2022-11-28T15:43:31.714Z,3.60
2022-11-28T15:46:00.336Z,3.60
2022-11-28T15:48:39.768Z,3.60
2022-11-28T15:51:09.481Z,3.70
2022-11-28T15:53:41.094Z,3.70
2022-11-28T15:56:10.937Z,3.70
2022-11-28T15:58:37.866Z,3.70
2022-11-28T16:01:10.769Z,3.70
2022-11-28T16:03:45.171Z,3.70
2022-11-28T16:06:14.458Z,3.70
2022-11-28T16:09:19.576Z,3.70
2022-11-28T16:11:51.331Z,3.70
2022-11-28T16:14:29.981Z,3.70
2022-11-28T16:17:00.824Z,3.70
2022-11-28T16:19:35.023Z,3.70
2022-11-28T16:22:03.496Z,3.80
2022-11-28T16:24:40.468Z,3.70
2022-11-28T16:27:07.299Z,3.70
2022-11-28T16:29:35.267Z,3.70
2022-11-28T16:32:26.516Z,3.70
2022-11-28T16:35:00.245Z,3.70
2022-11-28T16:37:27.732Z,3.70
2022-11-28T16:40:06.607Z,3.70
2022-11-28T16:42:33.942Z,3.70
2022-11-28T16:45:27.817Z,3.70
2022-11-28T16:48:11.439Z,3.60
2022-11-28T16:50:38.434Z,3.60
2022-11-28T16:53:05.454Z,3.60
2022-11-28T16:55:34.392Z,3.60
2022-11-28T16:58:22.457Z,3.50
2022-11-28T17:01:01.191Z,3.50
2022-11-28T17:03:57.915Z,3.50
2022-11-28T17:06:28.891Z,3.50
2022-11-28T17:09:01.228Z,3.50
2022-11-28T17:11:29.960Z,3.40
2022-11-28T17:14:08.651Z,3.40
2022-11-28T17:16:40.883Z,3.40
2022-11-28T17:19:07.668Z,3.40
2022-11-28T17:21:47.736Z,3.40
2022-11-28T17:24:31.931Z,3.30
2022-11-28T17:26:58.669Z,3.30
2022-11-28T17:29:25.464Z,3.30
2022-11-28T17:31:55.086Z,3.30
2022-11-28T17:34:31.610Z,3.30
2022-11-28T17:36:59.375Z,3.40
2022-11-28T17:39:29.032Z,3.30
2022-11-28T17:41:58.760Z,3.30
2022-11-28T17:44:26.550Z,3.30
2022-11-28T17:46:54.104Z,3.30
2022-11-28T17:49:20.892Z,3.20
2022-11-28T17:51:50.167Z,3.20
2022-11-28T17:54:17.920Z,3.20
2022-11-28T17:56:45.432Z,3.60
2022-11-28T17:59:12.396Z,3.10
2022-11-28T18:01:39.299Z,3.10
2022-11-28T18:04:06.115Z,3.10
2022-11-28T18:06:35.471Z,3.10
2022-11-28T18:09:06.003Z,3.10
2022-11-28T18:11:37.073Z,3.10
2022-11-28T18:14:03.827Z,3.10
2022-11-28T18:16:32.700Z,3.00
2022-11-28T18:19:01.915Z,3.00
2022-11-28T18:21:28.595Z,3.00
2022-11-28T18:23:55.318Z,2.90
2022-11-28T18:26:26.819Z,2.80
2022-11-28T18:28:53.742Z,2.80
2022-11-28T18:31:22.674Z,2.90
2022-11-28T18:33:51.648Z,2.90
2022-11-28T18:36:22.858Z,2.80
2022-11-28T18:38:49.950Z,2.90
2022-11-28T18:41:17.203Z,2.80
2022-11-28T18:43:44.076Z,2.80
2022-11-28T18:46:19.011Z,2.80
2022-11-28T18:48:46.805Z,2.70
2022-11-28T18:51:17.539Z,2.70
2022-11-28T18:53:49.508Z,2.60
2022-11-28T18:56:16.384Z,2.60
2022-11-28T18:58:45.258Z,2.50
2022-11-28T19:01:13.394Z,2.50
2022-11-28T19:03:40.278Z,2.50
2022-11-28T19:06:09.985Z,2.50
2022-11-28T19:08:36.930Z,2.50
2022-11-28T19:11:14.441Z,2.50
2022-11-28T19:13:44.598Z,2.50
2022-11-28T19:16:21.674Z,2.70
2022-11-28T19:18:48.495Z,2.50
2022-11-28T19:21:22.725Z,2.50
2022-11-28T19:23:49.779Z,2.40
2022-11-28T19:26:20.421Z,2.50
2022-11-28T19:28:47.352Z,2.50
2022-11-28T19:31:20.523Z,2.50
2022-11-28T19:33:58.974Z,2.50
2022-11-28T19:36:27.697Z,2.50
2022-11-28T19:38:54.633Z,2.50
2022-11-28T19:41:21.792Z,2.50
2022-11-28T19:43:48.561Z,2.60
2022-11-28T19:46:18.086Z,2.60
2022-11-28T19:48:44.792Z,2.60
2022-11-28T19:51:14.245Z,2.60
2022-11-28T19:53:42.150Z,2.70
2022-11-28T19:56:11.879Z,2.60
2022-11-28T19:58:41.069Z,2.60
2022-11-28T20:01:09.425Z,2.70
2022-11-28T20:03:36.877Z,2.70
2022-11-28T20:06:08.508Z,2.60
2022-11-28T20:08:37.983Z,2.60
2022-11-28T20:11:12.784Z,2.60
2022-11-28T20:13:40.477Z,2.60
2022-11-28T20:16:09.000Z,2.60
2022-11-28T20:18:39.505Z,2.50
2022-11-28T20:21:06.654Z,2.50
2022-11-28T20:23:38.102Z,2.50
2022-11-28T20:26:08.008Z,2.40
2022-11-28T20:28:35.592Z,2.40
2022-11-28T20:31:04.802Z,2.40
2022-11-28T20:33:33.824Z,2.40
2022-11-28T20:36:12.143Z,2.40
2022-11-28T20:38:38.914Z,2.40
2022-11-28T20:41:07.456Z,2.40
2022-11-28T20:43:34.890Z,2.30
2022-11-28T20:46:08.975Z,2.30
2022-11-28T20:48:38.365Z,2.40
2022-11-28T20:51:33.943Z,2.30
2022-11-28T20:54:01.067Z,2.40
2022-11-28T20:56:29.878Z,2.30
2022-11-28T20:58:58.432Z,2.30
2022-11-28T21:01:28.702Z,2.30
2022-11-28T21:03:58.458Z,2.40
2022-11-28T21:06:25.380Z,2.40
2022-11-28T21:08:54.649Z,2.40
2022-11-28T21:11:50.119Z,2.40
2022-11-28T21:14:09.104Z,2.40
2022-11-28T21:16:35.914Z,2.40
2022-11-28T21:19:07.606Z,2.40
2022-11-28T21:21:35.630Z,2.40
2022-11-28T21:24:04.076Z,2.40
2022-11-28T21:26:40.939Z,2.40
2022-11-28T21:29:09.740Z,2.40
2022-11-28T21:31:37.710Z,2.40
2022-11-28T21:34:06.676Z,2.40
2022-11-28T21:36:33.459Z,2.40
2022-11-28T21:39:05.612Z,2.40
2022-11-28T21:41:32.796Z,2.30
2022-11-28T21:43:59.825Z,2.30
2022-11-28T21:46:26.811Z,2.30
2022-11-28T21:48:57.757Z,2.30
2022-11-28T21:51:24.964Z,2.30
2022-11-28T21:53:51.735Z,2.20
2022-11-28T21:56:21.942Z,2.40
2022-11-28T21:58:48.663Z,2.20
2022-11-28T22:01:15.552Z,2.20
2022-11-28T22:03:44.677Z,2.20
2022-11-28T22:06:15.406Z,2.20
2022-11-28T22:08:44.354Z,2.20
2022-11-28T22:11:13.778Z,2.20
2022-11-28T22:13:42.233Z,2.20
2022-11-28T22:16:17.228Z,2.20
2022-11-28T22:18:46.778Z,2.20
2022-11-28T22:21:49.987Z,2.20
2022-11-28T22:24:02.487Z,2.10
2022-11-28T22:26:31.355Z,2.10
2022-11-28T22:28:58.972Z,2.20
2022-11-28T22:31:25.866Z,2.20
2022-11-28T22:33:54.814Z,2.20
2022-11-28T22:36:24.080Z,2.20
2022-11-28T22:38:54.808Z,2.30
2022-11-28T22:41:28.343Z,2.30
2022-11-28T22:43:57.104Z,2.30
2022-11-28T22:46:23.885Z,2.30
2022-11-28T22:48:51.871Z,2.30
2022-11-28T22:51:21.941Z,2.30
2022-11-28T22:53:52.103Z,2.30
2022-11-28T22:56:18.848Z,2.30
2022-11-28T22:58:48.698Z,2.20
2022-11-28T23:01:20.399Z,2.30
2022-11-28T23:03:49.804Z,2.30
2022-11-28T23:06:24.637Z,2.30
2022-11-28T23:08:51.791Z,2.30
2022-11-28T23:11:23.304Z,2.30
2022-11-28T23:13:50.592Z,2.30
2022-11-28T23:16:17.405Z,2.20
2022-11-28T23:18:47.810Z,2.20
2022-11-28T23:21:14.644Z,2.10
2022-11-28T23:23:44.005Z,2.10
2022-11-28T23:26:15.947Z,2.10
2022-11-28T23:28:42.806Z,2.00
2022-11-28T23:31:13.832Z,2.00
2022-11-28T23:33:45.517Z,2.10
2022-11-28T23:36:17.381Z,2.20
2022-11-28T23:38:44.339Z,2.10
2022-11-28T23:41:11.250Z,2.10
2022-11-28T23:43:38.156Z,2.10
2022-11-28T23:46:05.096Z,2.00
2022-11-28T23:48:34.362Z,2.00
2022-11-28T23:51:01.122Z,2.10
2022-11-28T23:53:27.823Z,2.10
2022-11-28T23:55:54.530Z,2.10
2022-11-28T23:58:21.317Z,2.10
